createdAt,value
2023-03-12T00:00:27.925Z,98376.84
2023-03-12T00:02:56.727Z,98376.72
2023-03-12T00:05:26.854Z,98373.28
2023-03-12T00:07:59.673Z,98367.94
2023-03-12T00:10:28.058Z,98368.78
2023-03-12T00:12:56.713Z,98363.56
2023-03-12T00:15:26.695Z,98353.06
2023-03-12T00:17:54.830Z,98355.63
2023-03-12T00:20:23.515Z,98353.03
2023-03-12T00:22:51.786Z,98352.09
2023-03-12T00:25:21.165Z,98339.91
2023-03-12T00:27:49.369Z,98339.00
2023-03-12T00:30:17.510Z,98333.84
2023-03-12T00:32:46.916Z,98330.25
2023-03-12T00:35:15.274Z,98331.97
2023-03-12T00:37:43.317Z,98327.56
2023-03-12T00:40:12.858Z,98334.44
2023-03-12T00:42:41.085Z,98332.63
2023-03-12T00:45:09.790Z,98325.75
2023-03-12T00:47:37.968Z,98326.53
2023-03-12T00:50:08.353Z,98319.59
2023-03-12T00:52:36.466Z,98324.78
2023-03-12T00:55:05.090Z,98317.94
2023-03-12T00:57:33.316Z,98326.63
2023-03-12T01:00:01.456Z,98318.88
2023-03-12T01:02:29.674Z,98318.00
2023-03-12T01:04:57.906Z,98320.59
2023-03-12T01:07:27.924Z,98309.31
2023-03-12T01:09:55.901Z,98315.34
2023-03-12T01:12:24.218Z,98309.31
2023-03-12T01:14:52.403Z,98311.00
2023-03-12T01:17:20.549Z,98310.13
2023-03-12T01:19:48.961Z,98303.09
2023-03-12T01:22:17.035Z,98298.78
2023-03-12T01:24:46.534Z,98310.13
2023-03-12T01:27:14.730Z,98300.53
2023-03-12T01:29:42.809Z,98304.00
2023-03-12T01:32:10.868Z,98298.81
2023-03-12T01:34:38.985Z,98302.25
2023-03-12T01:37:07.995Z,98295.31
2023-03-12T01:39:36.233Z,98302.25
2023-03-12T01:42:06.037Z,98296.22
2023-03-12T01:44:50.356Z,98288.38
2023-03-12T01:47:18.357Z,98289.34
2023-03-12T01:49:46.887Z,98281.66
2023-03-12T01:52:19.456Z,98280.88
2023-03-12T01:54:56.401Z,98281.84
2023-03-12T01:57:31.994Z,98285.31
2023-03-12T02:00:07.379Z,98281.91
2023-03-12T02:02:43.840Z,98273.28
2023-03-12T02:05:20.618Z,98272.41
2023-03-12T02:07:48.760Z,98276.66
2023-03-12T02:10:17.113Z,98268.09
2023-03-12T02:12:46.741Z,98267.25
2023-03-12T02:15:14.858Z,98272.53
2023-03-12T02:17:43.268Z,98270.06
2023-03-12T02:20:18.379Z,98273.56
2023-03-12T02:22:53.825Z,98269.22
2023-03-12T02:25:32.200Z,98264.91
2023-03-12T02:28:02.445Z,98266.69
2023-03-12T02:30:31.965Z,98272.63
2023-03-12T02:33:02.720Z,98265.84
2023-03-12T02:35:31.032Z,98264.06
2023-03-12T02:37:59.422Z,98265.78
2023-03-12T02:40:34.836Z,98255.34
2023-03-12T02:43:04.713Z,98264.94
2023-03-12T02:45:34.686Z,98260.72
2023-03-12T02:48:03.183Z,98263.28
2023-03-12T02:50:31.229Z,98265.91
2023-03-12T02:52:59.263Z,98263.47
2023-03-12T02:55:27.870Z,98265.97
2023-03-12T02:57:57.477Z,98262.63
2023-03-12T03:00:25.692Z,98263.56
2023-03-12T03:02:55.172Z,98273.94
2023-03-12T03:05:23.221Z,98281.78
2023-03-12T03:07:51.780Z,98275.75
2023-03-12T03:10:20.117Z,98273.25
2023-03-12T03:12:48.476Z,98274.97
2023-03-12T03:15:18.217Z,98270.69
2023-03-12T03:17:46.327Z,98262.91
2023-03-12T03:20:14.912Z,98281.09
2023-03-12T03:22:42.927Z,98269.00
2023-03-12T03:25:11.673Z,98267.25
2023-03-12T03:27:39.761Z,98269.00
2023-03-12T03:30:09.709Z,98269.06
2023-03-12T03:32:43.759Z,98260.50
2023-03-12T03:35:13.251Z,98268.28
2023-03-12T03:37:41.511Z,98266.53
2023-03-12T03:40:12.127Z,98263.94
2023-03-12T03:42:41.321Z,98263.97
2023-03-12T03:45:10.749Z,98254.44
2023-03-12T03:47:40.598Z,98259.69
2023-03-12T03:50:13.209Z,98260.59
2023-03-12T03:52:41.424Z,98255.34
2023-03-12T03:55:10.894Z,98265.81
2023-03-12T03:57:40.054Z,98264.19
2023-03-12T04:00:13.201Z,98263.34
2023-03-12T04:02:45.277Z,98264.22
2023-03-12T04:05:19.559Z,98265.94
2023-03-12T04:07:49.562Z,98259.88
2023-03-12T04:10:21.212Z,98274.56
2023-03-12T04:12:49.468Z,98264.31
2023-03-12T04:15:17.925Z,98259.16
2023-03-12T04:17:49.311Z,98270.41
2023-03-12T04:20:19.545Z,98271.25
2023-03-12T04:22:47.824Z,98270.41
2023-03-12T04:25:17.789Z,98275.59
2023-03-12T04:27:46.080Z,98270.50
2023-03-12T04:30:15.308Z,98270.44
2023-03-12T04:32:43.650Z,98269.63
2023-03-12T04:35:11.918Z,98269.69
2023-03-12T04:37:41.555Z,98265.31
2023-03-12T04:40:12.307Z,98269.66
2023-03-12T04:42:40.859Z,98263.50
2023-03-12T04:45:12.682Z,98267.06
2023-03-12T04:47:45.540Z,98273.13
2023-03-12T04:50:14.100Z,98274.00
2023-03-12T04:52:43.980Z,98267.91
2023-03-12T04:55:12.674Z,98271.41
2023-03-12T04:57:40.980Z,98266.19
2023-03-12T05:00:13.160Z,98267.03
2023-03-12T05:02:42.949Z,98277.44
2023-03-12T05:05:12.654Z,98278.28
2023-03-12T05:07:42.918Z,98281.69
2023-03-12T05:10:12.069Z,98265.19
2023-03-12T05:12:40.299Z,98270.31
2023-03-12T05:15:09.613Z,98267.66
2023-03-12T05:17:37.963Z,98263.38
2023-03-12T05:20:07.530Z,98272.84
2023-03-12T05:22:35.802Z,98277.97
2023-03-12T05:25:06.135Z,98279.69
2023-03-12T05:27:34.866Z,98275.38
2023-03-12T05:30:04.380Z,98272.75
2023-03-12T05:32:32.927Z,98266.69
2023-03-12T05:35:01.905Z,98269.28
2023-03-12T05:37:30.893Z,98276.19
2023-03-12T05:40:00.866Z,98277.81
2023-03-12T05:42:32.048Z,98282.13
2023-03-12T05:45:00.781Z,98284.72
2023-03-12T05:47:28.880Z,98285.50
2023-03-12T05:49:56.976Z,98304.59
2023-03-12T05:52:25.237Z,98297.75
2023-03-12T05:54:53.572Z,98306.41
2023-03-12T05:57:21.921Z,98317.72
2023-03-12T05:59:51.504Z,98311.63
2023-03-12T06:02:21.511Z,98314.09
2023-03-12T06:04:50.025Z,98320.16
2023-03-12T06:07:18.096Z,98324.47
2023-03-12T06:09:46.957Z,98329.69
2023-03-12T06:12:15.855Z,98324.50
2023-03-12T06:14:44.171Z,98321.91
2023-03-12T06:17:13.701Z,98322.00
2023-03-12T06:19:42.124Z,98315.97
2023-03-12T06:22:10.345Z,98330.75
2023-03-12T06:24:38.641Z,98334.97
2023-03-12T06:27:08.217Z,98335.84
2023-03-12T06:29:36.357Z,98338.38
2023-03-12T06:32:04.562Z,98339.19
2023-03-12T06:34:34.054Z,98332.31
2023-03-12T06:37:02.229Z,98332.38
2023-03-12T06:39:30.388Z,98341.03
2023-03-12T06:41:58.443Z,98341.03
2023-03-12T06:44:26.627Z,98355.75
2023-03-12T06:46:54.655Z,98349.72
2023-03-12T06:49:22.998Z,98341.81
2023-03-12T06:51:52.596Z,98359.13
2023-03-12T06:54:20.784Z,98357.41
2023-03-12T06:56:48.908Z,98353.94
2023-03-12T06:59:18.450Z,98362.59
2023-03-12T07:01:46.515Z,98359.25
2023-03-12T07:04:14.814Z,98364.31
2023-03-12T07:06:42.986Z,98355.75
2023-03-12T07:09:12.343Z,98355.75
2023-03-12T07:11:40.487Z,98370.50
2023-03-12T07:14:08.422Z,98373.13
2023-03-12T07:16:36.454Z,98363.69
2023-03-12T07:19:04.946Z,98374.13
2023-03-12T07:21:33.006Z,98362.94
2023-03-12T07:24:03.914Z,98368.00
2023-03-12T07:26:33.843Z,98368.03
2023-03-12T07:29:02.113Z,98368.00
2023-03-12T07:31:30.298Z,98368.00
2023-03-12T07:33:58.518Z,98374.84
2023-03-12T07:36:26.822Z,98374.69
2023-03-12T07:38:54.929Z,98381.56
2023-03-12T07:41:23.184Z,98382.41
2023-03-12T07:43:52.717Z,98385.03
2023-03-12T07:46:20.791Z,98394.56
2023-03-12T07:48:48.907Z,98389.34
2023-03-12T07:51:17.124Z,98397.09
2023-03-12T07:53:45.555Z,98393.56
2023-03-12T07:56:13.752Z,98400.47
2023-03-12T07:58:42.076Z,98397.84
2023-03-12T08:01:11.769Z,98402.09
2023-03-12T08:03:40.271Z,98403.84
2023-03-12T08:06:08.820Z,98403.91
2023-03-12T08:08:38.421Z,98395.25
2023-03-12T08:11:07.158Z,98400.44
2023-03-12T08:13:35.952Z,98392.66
2023-03-12T08:16:04.401Z,98406.44
2023-03-12T08:18:35.097Z,98406.53
2023-03-12T08:21:03.281Z,98411.72
2023-03-12T08:23:31.303Z,98416.97
2023-03-12T08:25:59.914Z,98426.50
2023-03-12T08:28:28.146Z,98410.03
2023-03-12T08:30:57.305Z,98417.91
2023-03-12T08:33:25.383Z,98423.91
2023-03-12T08:35:55.022Z,98424.81
2023-03-12T08:38:23.494Z,98424.81
2023-03-12T08:40:57.082Z,98425.53
2023-03-12T08:43:25.045Z,98432.41
2023-03-12T08:45:56.526Z,98439.25
2023-03-12T08:48:24.665Z,98444.31
2023-03-12T08:50:56.357Z,98456.44
2023-03-12T08:53:24.908Z,98459.81
2023-03-12T08:55:53.861Z,98446.91
2023-03-12T08:58:22.374Z,98458.19
2023-03-12T09:00:50.889Z,98458.31
2023-03-12T09:03:19.251Z,98461.78
2023-03-12T09:05:47.465Z,98466.00
2023-03-12T09:08:17.660Z,98465.97
2023-03-12T09:10:49.593Z,98467.72
2023-03-12T09:13:17.674Z,98468.59
2023-03-12T09:15:45.744Z,98481.59
2023-03-12T09:18:14.625Z,98472.16
2023-03-12T09:20:43.541Z,98483.34
2023-03-12T09:23:11.521Z,98479.97
2023-03-12T09:25:41.038Z,98498.19
2023-03-12T09:28:09.699Z,98495.56
2023-03-12T09:30:38.023Z,98491.13
2023-03-12T09:33:06.394Z,98504.09
2023-03-12T09:35:34.513Z,98500.53
2023-03-12T09:38:02.630Z,98497.88
2023-03-12T09:40:33.826Z,98510.88
2023-03-12T09:43:05.792Z,98502.06
2023-03-12T09:45:39.020Z,98505.38
2023-03-12T09:48:14.341Z,98519.03
2023-03-12T09:50:44.090Z,98518.94
2023-03-12T09:53:21.437Z,98524.91
2023-03-12T09:55:53.828Z,98529.13
2023-03-12T09:58:28.547Z,98537.63
2023-03-12T10:01:03.060Z,98535.78
2023-03-12T10:03:53.938Z,98546.91
2023-03-12T10:06:25.766Z,98529.34
2023-03-12T10:09:08.193Z,98544.59
2023-03-12T10:11:45.811Z,98548.97
2023-03-12T10:14:28.146Z,98554.25
2023-03-12T10:17:08.035Z,98555.19
2023-03-12T10:19:48.958Z,98552.53
2023-03-12T10:22:29.145Z,98564.53
2023-03-12T10:25:05.461Z,98561.81
2023-03-12T10:27:37.092Z,98572.91
2023-03-12T10:30:17.654Z,98573.63
2023-03-12T10:32:51.036Z,98573.81
2023-03-12T10:35:22.086Z,98581.03
2023-03-12T10:37:52.461Z,98584.59
2023-03-12T10:40:23.826Z,98573.59
2023-03-12T10:42:52.142Z,98592.06
2023-03-12T10:45:32.455Z,98586.34
2023-03-12T10:48:04.273Z,98603.84
2023-03-12T10:50:35.124Z,98590.91
2023-03-12T10:53:32.299Z,98610.84
2023-03-12T10:56:03.001Z,98612.50
2023-03-12T10:58:37.333Z,98612.41
2023-03-12T11:01:17.892Z,98613.34
2023-03-12T11:03:46.503Z,98615.09
2023-03-12T11:06:23.253Z,98616.00
2023-03-12T11:09:21.640Z,98619.66
2023-03-12T11:11:51.490Z,98621.59
2023-03-12T11:14:22.120Z,98626.88
2023-03-12T11:16:52.725Z,98617.34
2023-03-12T11:19:31.776Z,98631.81
2023-03-12T11:22:01.491Z,98629.38
2023-03-12T11:24:29.933Z,98619.88
2023-03-12T11:27:03.557Z,98607.94
2023-03-12T11:29:36.671Z,98624.41
2023-03-12T11:32:16.395Z,98628.75
2023-03-12T11:34:47.734Z,98621.97
2023-03-12T11:37:22.538Z,98618.53
2023-03-12T11:40:06.698Z,98621.97
2023-03-12T11:42:44.245Z,98638.47
2023-03-12T11:45:22.801Z,98646.19
2023-03-12T11:48:01.723Z,98635.03
2023-03-12T11:50:43.333Z,98637.59
2023-03-12T11:53:22.713Z,98648.00
2023-03-12T11:56:11.589Z,98651.47
2023-03-12T11:58:50.981Z,98657.63
2023-03-12T12:01:26.004Z,98658.56
2023-03-12T12:04:16.509Z,98676.03
2023-03-12T12:06:53.642Z,98674.44
2023-03-12T12:09:32.300Z,98672.03
2023-03-12T12:12:12.807Z,98682.47
2023-03-12T12:15:04.879Z,98684.22
2023-03-12T12:17:45.296Z,98695.41
2023-03-12T12:20:26.852Z,98683.22
2023-03-12T12:23:10.607Z,98695.31
2023-03-12T12:25:50.673Z,98711.63
2023-03-12T12:28:24.897Z,98702.88
2023-03-12T12:31:10.063Z,98698.53
2023-03-12T12:33:54.329Z,98711.56
2023-03-12T12:36:28.417Z,98710.69
2023-03-12T12:39:01.614Z,98718.56
2023-03-12T12:41:33.845Z,98736.75
2023-03-12T12:44:06.064Z,98733.38
2023-03-12T12:46:38.672Z,98735.09
2023-03-12T12:49:13.500Z,98740.38
2023-03-12T12:51:49.126Z,98742.09
2023-03-12T12:54:27.410Z,98756.06
2023-03-12T12:57:02.695Z,98751.69
2023-03-12T12:59:37.965Z,98746.50
2023-03-12T13:02:16.858Z,98756.81
2023-03-12T13:04:45.670Z,98762.81
2023-03-12T13:07:35.014Z,98761.88
2023-03-12T13:10:08.694Z,98773.09
2023-03-12T13:12:42.839Z,98770.47
2023-03-12T13:15:39.899Z,98774.88
2023-03-12T13:18:23.614Z,98778.34
2023-03-12T13:21:20.633Z,98778.41
2023-03-12T13:24:00.482Z,98793.00
2023-03-12T13:26:32.079Z,98782.69
2023-03-12T13:29:14.245Z,98794.78
2023-03-12T13:31:44.026Z,98805.25
2023-03-12T13:34:42.787Z,98795.75
2023-03-12T13:37:21.882Z,98797.56
2023-03-12T13:39:52.194Z,98800.94
2023-03-12T13:42:42.963Z,98806.13
2023-03-12T13:45:25.991Z,98806.13
2023-03-12T13:48:00.366Z,98797.47
2023-03-12T13:50:29.628Z,98801.78
2023-03-12T13:53:05.234Z,98807.00
2023-03-12T13:55:36.033Z,98814.88
2023-03-12T13:58:09.609Z,98813.22
2023-03-12T14:00:40.285Z,98824.47
2023-03-12T14:03:16.215Z,98813.34
2023-03-12T14:05:53.530Z,98833.28
2023-03-12T14:08:41.126Z,98823.88
2023-03-12T14:11:30.679Z,98828.25
2023-03-12T14:14:24.195Z,98833.41
2023-03-12T14:16:55.224Z,98849.94
2023-03-12T14:19:26.629Z,98853.41
2023-03-12T14:21:57.371Z,98853.44
2023-03-12T14:24:28.595Z,98850.00
2023-03-12T14:26:59.308Z,98866.44
2023-03-12T14:29:30.863Z,98871.66
2023-03-12T14:32:04.778Z,98856.94
2023-03-12T14:34:39.797Z,98879.41
2023-03-12T14:37:14.798Z,98875.06
2023-03-12T14:39:47.483Z,98882.00
2023-03-12T14:42:25.911Z,98887.22
2023-03-12T14:45:00.929Z,98882.91
2023-03-12T14:47:29.531Z,98894.16
2023-03-12T14:49:58.885Z,98898.47
2023-03-12T14:52:30.689Z,98900.19
2023-03-12T14:55:01.461Z,98904.53
2023-03-12T14:57:32.540Z,98910.59
2023-03-12T15:00:01.961Z,98915.84
2023-03-12T15:02:32.534Z,98897.69
2023-03-12T15:05:02.783Z,98922.78
2023-03-12T15:07:33.676Z,98925.38
2023-03-12T15:10:03.917Z,98933.25
2023-03-12T15:12:36.842Z,98934.16
2023-03-12T15:15:09.375Z,98913.38
2023-03-12T15:17:37.976Z,98932.41
2023-03-12T15:20:09.634Z,98941.94
2023-03-12T15:22:38.670Z,98937.59
2023-03-12T15:25:22.388Z,98936.72
2023-03-12T15:28:02.481Z,98945.34
2023-03-12T15:30:31.260Z,98947.94
2023-03-12T15:33:11.117Z,98955.75
2023-03-12T15:35:40.530Z,98959.22
2023-03-12T15:38:15.858Z,98951.44
2023-03-12T15:40:49.937Z,98961.81
2023-03-12T15:43:22.660Z,98974.75
2023-03-12T15:45:59.930Z,98960.91
2023-03-12T15:48:32.129Z,98963.53
2023-03-12T15:51:00.649Z,98971.31
2023-03-12T15:53:32.414Z,98965.28
2023-03-12T15:56:05.191Z,98972.22
2023-03-12T15:58:36.796Z,98982.59
2023-03-12T16:01:11.363Z,98986.94
2023-03-12T16:03:40.420Z,98986.13
2023-03-12T16:06:14.194Z,98981.84
2023-03-12T16:08:46.333Z,98982.66
2023-03-12T16:11:17.590Z,98987.94
2023-03-12T16:13:49.793Z,99000.94
2023-03-12T16:16:18.327Z,98996.66
2023-03-12T16:18:46.723Z,99003.56
2023-03-12T16:21:14.874Z,99008.78
2023-03-12T16:23:42.948Z,99012.22
2023-03-12T16:26:14.144Z,99015.69
2023-03-12T16:28:43.118Z,99013.94
2023-03-12T16:31:13.842Z,99017.38
2023-03-12T16:33:42.634Z,99021.72
2023-03-12T16:36:14.149Z,99022.59
2023-03-12T16:38:42.730Z,99033.81
2023-03-12T16:41:14.098Z,99046.78
2023-03-12T16:43:45.797Z,99043.31
2023-03-12T16:46:19.729Z,99048.47
2023-03-12T16:48:52.217Z,99048.47
2023-03-12T16:51:21.370Z,99046.75
2023-03-12T16:54:02.002Z,99042.44
2023-03-12T16:56:37.414Z,99040.69
2023-03-12T16:59:12.180Z,99046.72
2023-03-12T17:01:41.749Z,99047.59
2023-03-12T17:04:12.124Z,99040.69
2023-03-12T17:06:41.324Z,99051.03
2023-03-12T17:09:09.516Z,99042.34
2023-03-12T17:11:38.944Z,99039.78
2023-03-12T17:14:19.279Z,99047.56
2023-03-12T17:16:49.077Z,99047.53
2023-03-12T17:19:17.813Z,99048.38
2023-03-12T17:21:46.467Z,99048.41
2023-03-12T17:24:15.086Z,99048.41
2023-03-12T17:26:45.429Z,99049.25
2023-03-12T17:29:13.523Z,99062.22
2023-03-12T17:31:41.708Z,99057.03
2023-03-12T17:34:11.137Z,99067.41
2023-03-12T17:36:40.415Z,99056.19
2023-03-12T17:39:08.582Z,99072.63
2023-03-12T17:41:36.833Z,99067.47
2023-03-12T17:44:07.184Z,99058.84
2023-03-12T17:46:39.090Z,99073.56
2023-03-12T17:49:08.899Z,99083.94
2023-03-12T17:51:38.693Z,99082.25
2023-03-12T17:54:06.875Z,99088.31
2023-03-12T17:56:35.149Z,99088.31
2023-03-12T17:59:03.209Z,99087.47
2023-03-12T18:01:31.416Z,99088.31
2023-03-12T18:03:59.473Z,99100.44
2023-03-12T18:06:27.535Z,99101.28
2023-03-12T18:08:56.989Z,99095.25
2023-03-12T18:11:25.239Z,99098.69
2023-03-12T18:13:53.246Z,99113.38
2023-03-12T18:16:21.442Z,99108.19
2023-03-12T18:18:51.529Z,99118.56
2023-03-12T18:21:20.869Z,99116.00
2023-03-12T18:23:49.001Z,99115.13
2023-03-12T18:26:18.425Z,99112.53
2023-03-12T18:28:46.534Z,99116.00
2023-03-12T18:31:14.741Z,99122.91
2023-03-12T18:33:42.853Z,99124.63
2023-03-12T18:36:11.243Z,99126.38
2023-03-12T18:38:39.408Z,99125.50
2023-03-12T18:41:10.553Z,99123.78
2023-03-12T18:43:40.578Z,99135.88
2023-03-12T18:46:11.424Z,99140.19
2023-03-12T18:48:42.289Z,99134.13
2023-03-12T18:51:11.857Z,99138.47
2023-03-12T18:53:39.949Z,99145.41
2023-03-12T18:56:08.498Z,99148.84
2023-03-12T18:58:37.179Z,99150.56
2023-03-12T19:01:06.750Z,99148.84
2023-03-12T19:03:36.481Z,99160.94
2023-03-12T19:06:06.420Z,99154.03
2023-03-12T19:08:37.238Z,99156.59
2023-03-12T19:11:07.137Z,99173.00
2023-03-12T19:13:35.808Z,99168.72
2023-03-12T19:16:08.480Z,99181.66
2023-03-12T19:18:37.497Z,99179.91
2023-03-12T19:21:07.851Z,99178.19
2023-03-12T19:23:36.732Z,99187.69
2023-03-12T19:26:05.213Z,99192.00
2023-03-12T19:28:33.696Z,99172.97
2023-03-12T19:31:02.220Z,99186.78
2023-03-12T19:33:33.246Z,99198.03
2023-03-12T19:36:01.879Z,99190.22
2023-03-12T19:38:30.370Z,99198.88
2023-03-12T19:40:59.061Z,99207.50
2023-03-12T19:43:27.836Z,99208.34
2023-03-12T19:45:56.130Z,99220.41
2023-03-12T19:48:25.270Z,99211.75
2023-03-12T19:50:56.046Z,99215.25
2023-03-12T19:53:24.850Z,99208.31
2023-03-12T19:55:53.173Z,99230.69
2023-03-12T19:58:21.147Z,99228.09
2023-03-12T20:00:49.753Z,99220.31
2023-03-12T20:03:18.045Z,99234.97
2023-03-12T20:05:47.041Z,99238.38
2023-03-12T20:08:16.485Z,99241.81
2023-03-12T20:10:44.497Z,99247.84
2023-03-12T20:13:13.594Z,99254.75
2023-03-12T20:15:45.064Z,99259.03
2023-03-12T20:18:13.500Z,99248.66
2023-03-12T20:20:41.662Z,99255.56
2023-03-12T20:23:09.851Z,99258.13
2023-03-12T20:25:42.139Z,99258.97
2023-03-12T20:28:11.356Z,99265.91
2023-03-12T20:30:41.295Z,99271.09
2023-03-12T20:33:09.917Z,99267.66
2023-03-12T20:35:38.225Z,99271.97
2023-03-12T20:38:06.446Z,99278.88
2023-03-12T20:40:34.612Z,99280.59
2023-03-12T20:43:04.999Z,99282.31
2023-03-12T20:45:34.573Z,99283.19
2023-03-12T20:48:02.647Z,99285.78
2023-03-12T20:50:31.148Z,99288.34
2023-03-12T20:52:59.684Z,99295.22
2023-03-12T20:55:27.748Z,99294.31
2023-03-12T20:57:55.873Z,99295.19
2023-03-12T21:00:25.993Z,99300.34
2023-03-12T21:02:54.128Z,99309.81
2023-03-12T21:05:24.579Z,99303.72
2023-03-12T21:07:53.803Z,99307.97
2023-03-12T21:10:22.405Z,99313.16
2023-03-12T21:12:50.494Z,99311.41
2023-03-12T21:15:18.496Z,99302.81
2023-03-12T21:17:48.219Z,99316.63
2023-03-12T21:20:18.816Z,99308.81
2023-03-12T21:22:47.566Z,99317.47
2023-03-12T21:25:15.788Z,99318.31
2023-03-12T21:27:50.391Z,99319.16
2023-03-12T21:30:20.095Z,99324.41
2023-03-12T21:32:49.631Z,99327.88
2023-03-12T21:35:19.998Z,99333.91
2023-03-12T21:37:48.361Z,99332.22
2023-03-12T21:40:17.065Z,99332.28
2023-03-12T21:42:45.248Z,99337.47
2023-03-12T21:45:13.268Z,99328.00
2023-03-12T21:47:41.620Z,99339.31
2023-03-12T21:50:12.520Z,99340.16
2023-03-12T21:52:43.603Z,99341.03
2023-03-12T21:55:12.232Z,99344.50
2023-03-12T21:57:40.469Z,99340.22
2023-03-12T22:00:12.706Z,99343.66
2023-03-12T22:02:41.405Z,99353.19
2023-03-12T22:05:11.771Z,99353.19
2023-03-12T22:07:39.988Z,99357.56
2023-03-12T22:10:11.858Z,99351.53
2023-03-12T22:12:40.596Z,99356.72
2023-03-12T22:15:09.724Z,99363.66
2023-03-12T22:17:37.756Z,99369.69
2023-03-12T22:20:07.993Z,99373.19
2023-03-12T22:22:37.555Z,99370.63
2023-03-12T22:25:06.461Z,99378.41
2023-03-12T22:27:34.649Z,99389.63
2023-03-12T22:30:03.325Z,99382.72
2023-03-12T22:32:32.179Z,99388.78
2023-03-12T22:35:00.221Z,99387.03
2023-03-12T22:37:28.289Z,99389.69
2023-03-12T22:40:01.489Z,99395.72
2023-03-12T22:42:29.731Z,99394.88
2023-03-12T22:44:57.826Z,99395.75
2023-03-12T22:47:25.850Z,99401.78
2023-03-12T22:49:53.899Z,99407.84
2023-03-12T22:52:21.852Z,99395.78
2023-03-12T22:54:50.968Z,99394.06
2023-03-12T22:57:20.344Z,99401.84
2023-03-12T22:59:48.825Z,99409.69
2023-03-12T23:02:16.911Z,99405.34
2023-03-12T23:04:45.287Z,99407.97
2023-03-12T23:07:17.314Z,99408.84
2023-03-12T23:09:45.952Z,99409.72
2023-03-12T23:12:13.988Z,99408.88
2023-03-12T23:14:43.417Z,99419.25
2023-03-12T23:17:11.446Z,99414.94
2023-03-12T23:19:39.441Z,99409.75
2023-03-12T23:22:08.001Z,99424.50
2023-03-12T23:24:36.271Z,99415.00
2023-03-12T23:27:04.914Z,99415.00
2023-03-12T23:29:34.203Z,99418.44
2023-03-12T23:32:03.755Z,99425.41
2023-03-12T23:34:31.845Z,99428.00
2023-03-12T23:36:59.916Z,99437.50
2023-03-12T23:39:29.705Z,99440.09
2023-03-12T23:41:57.813Z,99440.09
2023-03-12T23:44:25.908Z,99442.66
2023-03-12T23:46:53.963Z,99446.16
2023-03-12T23:49:23.358Z,99441.84
2023-03-12T23:51:51.315Z,99441.84
2023-03-12T23:54:19.259Z,99449.59
2023-03-12T23:56:47.252Z,99449.63
2023-03-12T23:59:15.316Z,99446.16
